Time;durP1;ratioP1;P1;durP2;ratioP2;P2;SDS_P1;SDS_P2;PMS_P1;PMS_P2;Temp;Humidity;BMP_temperature;BMP_pressure;BME280_temperature;BME280_humidity;BME280_pressure;Samples;Min_cycle;Max_cycle;Signal;HPM_P1;HPM_P2
2023/04/25 00:02:56;;;;;;;2.90;0.90;;;;;;;10.20;94.46;99551.57;5120542;56;1136718;-77
2023/04/25 00:08:02;;;;;;;1.60;0.93;;;;;;;10.14;94.56;99557.86;5131595;55;1136666;-76
2023/04/25 00:13:08;;;;;;;0.80;0.80;;;;;;;10.02;94.24;99562.45;5097107;56;1136641;-77
2023/04/25 00:18:13;;;;;;;3.00;0.83;;;;;;;9.91;94.54;99558.63;5029049;56;1136689;-77
2023/04/25 00:23:19;;;;;;;1.70;0.73;;;;;;;9.84;95.39;99550.89;5008507;56;1134688;-77
2023/04/25 00:28:24;;;;;;;0.70;0.70;;;;;;;9.70;96.02;99550.81;4988421;57;1134760;-76
2023/04/25 00:33:30;;;;;;;1.65;0.60;;;;;;;9.61;95.82;99554.77;5012304;57;1134636;-76
2023/04/25 00:38:38;;;;;;;0.70;0.70;;;;;;;9.51;96.00;99565.30;5056614;56;1134854;-77
2023/04/25 00:43:44;;;;;;;0.63;0.63;;;;;;;9.41;96.08;99569.23;5065059;56;1134599;-77
2023/04/25 00:48:50;;;;;;;1.70;0.80;;;;;;;9.31;96.46;99568.87;5043350;56;1134506;-77
2023/04/25 00:53:56;;;;;;;1.12;0.82;;;;;;;9.24;96.10;99575.63;5074553;56;1134601;-77
2023/04/25 00:59:02;;;;;;;0.60;0.60;;;;;;;9.15;96.20;99574.16;5056873;57;1134714;-76
2023/04/25 01:04:08;;;;;;;3.22;0.57;;;;;;;9.08;96.51;99587.52;5038627;57;1134820;-76
2023/04/25 01:09:14;;;;;;;3.42;0.65;;;;;;;9.04;96.33;99584.78;5109645;56;1134659;-76
2023/04/25 01:14:20;;;;;;;0.83;0.50;;;;;;;8.94;96.27;99583.08;5136974;56;1134625;-76
2023/04/25 01:19:26;;;;;;;0.60;0.60;;;;;;;8.88;96.22;99588.38;4991363;55;1134661;-76
2023/04/25 01:24:34;;;;;;;12.00;0.60;;;;;;;8.86;95.99;99586.34;5073058;56;1134549;-77
2023/04/25 01:29:40;;;;;;;0.77;0.77;;;;;;;8.82;95.93;99582.33;5084717;56;1136639;-77
2023/04/25 01:34:45;;;;;;;0.80;0.80;;;;;;;8.80;95.91;99573.71;5088273;56;1134775;-76
2023/04/25 01:39:52;;;;;;;1.30;0.77;;;;;;;8.72;96.16;99576.98;5013668;57;1134653;-76
2023/04/25 01:44:58;;;;;;;2.67;0.80;;;;;;;8.63;96.72;99580.41;4994478;56;1135035;-77
2023/04/25 01:50:07;;;;;;;2.05;1.15;;;;;;;8.55;97.02;99587.30;4953064;58;1134641;-77
2023/04/25 01:55:14;;;;;;;0.82;0.82;;;;;;;8.49;97.21;99591.28;4957416;57;1134489;-77
2023/04/25 02:00:21;;;;;;;1.80;0.90;;;;;;;8.45;97.37;99599.08;5044244;56;1134484;-76
2023/04/25 02:05:27;;;;;;;0.80;0.70;;;;;;;8.41;97.53;99602.92;5034154;57;1134707;-76
2023/04/25 02:10:33;;;;;;;1.23;0.77;;;;;;;8.41;97.80;99602.92;4965027;57;1134549;-76
2023/04/25 02:15:49;;;;;;;1.10;1.00;;;;;;;8.34;98.15;99605.73;4990043;57;1134615;-76
2023/04/25 02:20:56;;;;;;;0.80;0.80;;;;;;;8.32;98.43;99606.33;4878687;58;1134570;-76
2023/04/25 02:26:02;;;;;;;0.97;0.93;;;;;;;8.29;99.10;99616.61;4952024;57;1134727;-76
2023/04/25 02:31:08;;;;;;;1.57;0.90;;;;;;;8.26;99.64;99610.74;4942684;57;1134840;-76
2023/04/25 02:36:13;;;;;;;1.40;1.10;;;;;;;8.23;99.94;99611.86;4962100;57;1134710;-76
2023/04/25 02:41:20;;;;;;;1.53;1.40;;;;;;;8.20;100.00;99613.42;4984032;57;1134790;-76
2023/04/25 02:46:26;;;;;;;1.73;1.10;;;;;;;8.22;100.00;99613.30;5037250;56;1136970;-77
2023/04/25 02:51:32;;;;;;;1.37;1.30;;;;;;;8.23;100.00;99610.55;5120397;55;1136871;-77
2023/04/25 02:56:38;;;;;;;1.43;1.07;;;;;;;8.19;100.00;99609.12;5128173;55;1136767;-76
2023/04/25 03:01:45;;;;;;;2.43;1.03;;;;;;;8.17;100.00;99603.13;5106888;56;1136876;-76
2023/04/25 03:06:51;;;;;;;1.20;1.20;;;;;;;8.12;100.00;99604.81;4980516;57;1136579;-76
2023/04/25 03:12:00;;;;;;;1.40;1.30;;;;;;;8.11;100.00;99604.94;4968761;57;1136687;-77
2023/04/25 03:17:06;;;;;;;1.12;0.93;;;;;;;8.03;100.00;99601.63;5033712;55;1136990;-76
2023/04/25 03:22:13;;;;;;;2.24;1.10;;;;;;;7.97;100.00;99601.28;5028713;57;1136720;-77
2023/04/25 03:27:19;;;;;;;2.70;1.20;;;;;;;7.95;100.00;99602.72;5117595;55;1136740;-78
2023/04/25 03:32:25;;;;;;;1.00;1.00;;;;;;;7.93;100.00;99602.52;5044850;57;1136784;-78
2023/04/25 03:37:31;;;;;;;2.20;1.20;;;;;;;7.86;100.00;99606.59;5086652;55;1136755;-78
2023/04/25 03:42:37;;;;;;;2.70;1.10;;;;;;;7.79;100.00;99610.22;4929453;56;1136618;-77
2023/04/25 03:47:43;;;;;;;2.30;1.40;;;;;;;7.76;100.00;99607.34;4964063;57;1136843;-78
2023/04/25 03:52:49;;;;;;;1.32;1.22;;;;;;;7.84;100.00;99604.08;5019673;56;1136804;-77
2023/04/25 03:57:55;;;;;;;1.20;1.10;;;;;;;7.86;100.00;99610.54;4969855;57;1136667;-78
2023/04/25 04:03:01;;;;;;;1.93;1.13;;;;;;;7.86;100.00;99610.54;5013884;57;1137048;-78
2023/04/25 04:08:07;;;;;;;4.53;1.77;;;;;;;7.89;100.00;99612.94;5124128;56;1136751;-78
2023/04/25 04:13:14;;;;;;;1.95;1.17;;;;;;;7.90;100.00;99627.29;5152908;55;1136569;-77
2023/04/25 04:18:20;;;;;;;1.40;1.30;;;;;;;7.86;100.00;99625.02;5107110;56;1137128;-77
2023/04/25 04:23:27;;;;;;;1.53;1.43;;;;;;;7.92;100.00;99623.22;5117773;55;1136652;-78
2023/04/25 04:28:35;;;;;;;3.83;1.40;;;;;;;7.93;100.00;99628.37;5097525;55;1136844;-78
2023/04/25 04:33:46;;;;;;;1.73;1.57;;;;;;;7.93;100.00;99640.69;5029895;57;1136823;-77
2023/04/25 04:38:53;;;;;;;3.98;1.85;;;;;;;7.99;100.00;99641.02;4980449;57;1136638;-78
2023/04/25 04:44:01;;;;;;;6.20;1.92;;;;;;;8.06;100.00;99639.58;5045364;56;1136733;-77
2023/04/25 04:49:23;;;;;;;;;;;;;;;8.13;100.00;99639.89;4983452;57;1136656;-77
2023/04/25 04:54:31;;;;;;;2.50;1.40;;;;;;;8.20;100.00;99642.87;4997002;57;974009;-78
2023/04/25 04:59:41;;;;;;;3.47;2.13;;;;;;;8.18;100.00;99649.59;4873841;58;1134791;-77
2023/04/25 05:04:48;;;;;;;3.30;2.50;;;;;;;8.10;100.00;99643.61;4917246;56;1136684;-77
2023/04/25 05:10:05;;;;;;;2.50;2.23;;;;;;;8.06;100.00;99638.25;4900903;57;1136759;-77
2023/04/25 05:15:16;;;;;;;6.40;2.53;;;;;;;8.09;100.00;99643.76;4988679;57;1136637;-78
2023/04/25 05:20:30;;;;;;;5.67;2.83;;;;;;;8.12;100.00;99640.85;4915254;58;1136733;-78
2023/04/25 05:25:53;;;;;;;5.47;3.00;;;;;;;8.21;100.00;99641.92;4894732;57;1136946;-77
2023/04/25 05:31:16;;;;;;;3.92;2.42;;;;;;;8.37;100.00;99637.94;4896836;58;1136753;-78
2023/04/25 05:36:27;;;;;;;2.93;2.63;;;;;;;8.57;100.00;99644.64;4952866;57;1136779;-81
2023/04/25 05:41:34;;;;;;;3.00;2.47;;;;;;;8.67;100.00;99646.89;5032078;57;1136698;-79
2023/04/25 05:46:41;;;;;;;6.83;3.53;;;;;;;8.83;100.00;99649.08;4996799;57;1136639;-76
2023/04/25 05:51:57;;;;;;;9.17;3.30;;;;;;;8.87;100.00;99643.39;4982817;57;1136901;-78
2023/04/25 05:57:26;;;;;;;4.77;3.23;;;;;;;8.91;100.00;99640.86;5115789;56;1136586;-81
2023/04/25 06:02:33;;;;;;;5.20;2.83;;;;;;;9.07;100.00;99646.51;5097692;55;1136628;-77
2023/04/25 06:07:39;;;;;;;9.27;3.00;;;;;;;9.16;100.00;99652.81;5148178;55;1136593;-79
2023/04/25 06:12:45;;;;;;;5.37;2.70;;;;;;;9.22;100.00;99660.19;5184367;55;1136869;-78
2023/04/25 06:17:51;;;;;;;4.50;3.47;;;;;;;9.21;100.00;99653.72;5141433;55;1136572;-79
2023/04/25 06:22:57;;;;;;;3.70;2.83;;;;;;;9.20;100.00;99651.56;5097738;56;1136655;-76
2023/04/25 06:28:13;;;;;;;3.67;2.90;;;;;;;9.28;100.00;99657.04;5096434;56;1136750;-78
2023/04/25 06:33:21;;;;;;;7.40;3.30;;;;;;;9.38;100.00;99657.06;5188989;55;1136639;-75
2023/04/25 06:38:27;;;;;;;3.30;2.97;;;;;;;9.58;99.93;99647.43;5153755;55;1136591;-78
2023/04/25 06:43:34;;;;;;;3.87;2.70;;;;;;;9.58;99.93;99647.43;5097678;56;1134808;-78
2023/04/25 06:48:44;;;;;;;8.47;3.53;;;;;;;9.70;99.37;99652.47;5176305;55;1134614;-80
2023/04/25 06:53:50;;;;;;;6.60;3.17;;;;;;;9.70;98.45;99651.63;5204406;55;1134611;-80
2023/04/25 06:58:58;;;;;;;5.00;3.07;;;;;;;9.75;99.65;99652.07;5183015;55;1134562;-76
2023/04/25 07:04:05;;;;;;;5.37;3.60;;;;;;;9.76;99.04;99652.42;5032862;56;1134799;-76
2023/04/25 07:09:12;;;;;;;5.03;3.02;;;;;;;9.76;99.40;99641.86;5138103;56;1134669;-80
2023/04/25 07:14:20;;;;;;;5.97;3.15;;;;;;;9.79;98.40;99645.53;5116554;56;1134527;-81
2023/04/25 07:19:26;;;;;;;4.77;2.67;;;;;;;9.85;97.99;99645.84;5033808;57;1134456;-76
2023/04/25 07:24:33;;;;;;;4.70;2.80;;;;;;;9.85;97.98;99651.60;5054114;56;1134619;-79
2023/04/25 07:29:39;;;;;;;6.20;3.33;;;;;;;9.94;98.34;99656.06;5016914;57;1134595;-80
2023/04/25 07:34:45;;;;;;;4.20;2.90;;;;;;;9.93;96.36;99658.34;5133664;55;1134593;-76
2023/04/25 07:39:51;;;;;;;7.17;2.92;;;;;;;9.85;97.02;99659.53;5051810;57;1134706;-76
2023/04/25 07:44:56;;;;;;;5.20;2.90;;;;;;;9.83;96.78;99665.42;4993343;56;1134753;-78
2023/04/25 07:50:03;;;;;;;4.17;2.83;;;;;;;9.85;97.95;99672.25;4980872;56;1134442;-77
2023/04/25 07:55:10;;;;;;;3.40;2.30;;;;;;;9.91;97.44;99664.77;5000069;57;1134579;-77
2023/04/25 08:00:31;;;;;;;5.20;2.80;;;;;;;9.88;96.98;99666.70;4845457;59;1134678;-77
2023/04/25 08:05:38;;;;;;;7.70;4.70;;;;;;;9.95;95.84;99670.10;4841918;59;1134913;-78
2023/04/25 08:10:44;;;;;;;7.60;3.22;;;;;;;9.99;96.03;99666.23;4847969;58;1134907;-80
2023/04/25 08:15:51;;;;;;;6.93;2.90;;;;;;;10.04;96.10;99673.27;4943316;58;1134591;-77
2023/04/25 08:20:57;;;;;;;4.13;2.40;;;;;;;10.04;93.28;99671.46;4926746;57;1136786;-79
2023/04/25 08:26:04;;;;;;;11.68;3.17;;;;;;;10.07;93.00;99679.13;4924525;58;1255158;-81
2023/04/25 08:31:11;;;;;;;8.50;3.08;;;;;;;10.06;91.95;99679.25;4945872;58;1138791;-78
2023/04/25 08:36:18;;;;;;;3.33;2.20;;;;;;;10.06;93.44;99691.14;4986170;57;1136830;-75
2023/04/25 08:41:25;;;;;;;6.53;2.43;;;;;;;10.13;92.23;99693.58;4985104;56;1136736;-79
2023/04/25 08:46:32;;;;;;;3.67;3.10;;;;;;;10.17;91.83;99681.77;5074815;56;1136722;-82
2023/04/25 08:51:52;;;;;;;13.67;3.37;;;;;;;10.21;91.96;99681.89;5031682;57;1136673;-80
2023/04/25 08:57:04;;;;;;;5.33;2.63;;;;;;;10.28;93.40;99692.72;5032970;57;1138618;-79
2023/04/25 09:02:14;;;;;;;4.53;2.63;;;;;;;10.36;92.95;99687.60;5126964;56;1136669;-79
2023/04/25 09:07:21;;;;;;;4.60;2.30;;;;;;;10.36;92.95;99687.60;5117436;56;1136760;-81
2023/04/25 09:12:25;;;;;;;15.93;6.17;;;;;;;10.47;90.08;99702.84;5117367;56;1136665;-78
2023/04/25 09:17:31;;;;;;;7.10;3.63;;;;;;;10.54;91.52;99703.94;5137022;56;1138713;-75
2023/04/25 09:22:39;;;;;;;6.20;2.50;;;;;;;10.63;92.75;99716.00;5117407;56;1136799;-79
2023/04/25 09:27:55;;;;;;;8.08;3.10;;;;;;;10.66;89.48;99717.88;5117713;56;1136842;-75
2023/04/25 09:33:11;;;;;;;8.67;2.60;;;;;;;10.65;91.21;99717.53;5137811;56;1136655;-79
2023/04/25 09:38:21;;;;;;;4.20;2.52;;;;;;;10.71;90.34;99721.41;5093867;56;1136680;-80
2023/04/25 09:43:37;;;;;;;5.33;2.53;;;;;;;10.74;90.38;99725.94;5008727;57;1136772;-79
2023/04/25 09:48:50;;;;;;;6.00;2.45;;;;;;;10.71;90.11;99721.41;5002388;56;1136678;-77
2023/04/25 09:53:57;;;;;;;8.47;2.53;;;;;;;10.60;89.71;99725.52;5027759;57;1136697;-77
2023/04/25 09:59:17;;;;;;;13.22;4.98;;;;;;;10.57;89.47;99735.88;4980397;57;1136736;-77
2023/04/25 10:04:29;;;;;;;14.73;4.55;;;;;;;10.59;90.42;99740.55;4926921;57;1138806;-79
2023/04/25 10:09:40;;;;;;;6.63;3.07;;;;;;;10.64;90.34;99733.53;5006436;57;1138725;-80
2023/04/25 10:14:47;;;;;;;5.93;3.03;;;;;;;10.68;89.59;99731.80;5072094;56;1136865;-78
2023/04/25 10:19:53;;;;;;;8.97;2.53;;;;;;;10.72;87.79;99734.98;4956613;56;1136914;-77
2023/04/25 10:24:59;;;;;;;4.47;2.20;;;;;;;10.73;88.61;99733.52;5037753;56;1136871;-78
2023/04/25 10:30:12;;;;;;;4.07;1.97;;;;;;;10.72;86.83;99738.47;5044656;56;1136641;-77
2023/04/25 10:35:28;;;;;;;3.47;2.60;;;;;;;10.66;85.56;99739.52;5046590;55;1136695;-80
2023/04/25 10:40:36;;;;;;;5.53;2.53;;;;;;;10.59;85.66;99744.52;5055488;56;1136747;-77
2023/04/25 10:45:54;;;;;;;4.90;2.23;;;;;;;10.53;86.31;99752.53;4960115;57;1136964;-79
2023/04/25 10:51:18;;;;;;;5.40;2.30;;;;;;;10.40;86.55;99742.67;5087242;56;1136852;-77
2023/04/25 10:56:27;;;;;;;3.92;2.20;;;;;;;10.37;86.74;99744.30;5067543;56;1136748;-76
2023/04/25 11:01:46;;;;;;;5.43;3.30;;;;;;;10.36;87.48;99755.00;4916680;58;1136793;-79
2023/04/25 11:07:35;;;;;;;6.23;2.50;;;;;;;10.41;88.33;99747.00;4965845;58;1136873;-76
2023/04/25 11:12:40;;;;;;;7.57;2.60;;;;;;;10.55;88.58;99744.44;5020637;56;1136885;-79
2023/04/25 11:17:46;;;;;;;2.80;2.20;;;;;;;10.72;89.39;99745.08;5086273;57;1136923;-76
2023/04/25 11:22:51;;;;;;;4.87;2.03;;;;;;;10.83;87.06;99750.25;5015921;57;1136664;-81
2023/04/25 11:28:06;;;;;;;3.10;1.63;;;;;;;10.96;85.56;99743.35;5013830;56;1136751;-77
2023/04/25 11:33:07;;;;;;;3.90;2.07;;;;;;;11.06;82.46;99736.72;4998694;57;1136664;-80
2023/04/25 11:38:12;;;;;;;3.67;1.87;;;;;;;11.25;83.43;99745.47;5013602;57;1136889;-80
2023/04/25 11:43:22;;;;;;;4.17;1.70;;;;;;;11.33;80.68;99746.06;5013702;57;1136689;-78
2023/04/25 11:48:28;;;;;;;8.67;4.20;;;;;;;11.27;79.95;99758.56;5032357;57;1136776;-76
2023/04/25 11:53:33;;;;;;;3.93;2.13;;;;;;;11.21;79.78;99764.41;5013350;57;1136821;-77
2023/04/25 11:59:05;;;;;;;4.47;2.47;;;;;;;11.11;80.05;99760.47;4952325;56;1136582;-78
2023/04/25 12:04:23;;;;;;;5.70;2.07;;;;;;;11.00;80.59;99763.23;5033402;56;1136593;-79
2023/04/25 12:09:33;;;;;;;4.50;1.73;;;;;;;11.02;80.37;99765.75;5063227;56;1136878;-80
2023/04/25 12:14:39;;;;;;;2.20;1.70;;;;;;;11.14;80.96;99763.33;4959604;57;1136765;-79
2023/04/25 12:19:47;;;;;;;3.37;2.10;;;;;;;11.25;80.66;99761.35;4952185;57;1136827;-78
2023/04/25 12:24:53;;;;;;;3.53;2.00;;;;;;;11.34;80.32;99765.44;4951885;57;1136859;-79
2023/04/25 12:30:00;;;;;;;4.33;2.33;;;;;;;11.40;79.09;99761.74;4971363;57;1136695;-81
2023/04/25 12:35:07;;;;;;;5.73;2.03;;;;;;;11.49;80.89;99762.68;4952426;57;1137022;-80
2023/04/25 12:40:13;;;;;;;5.63;2.80;;;;;;;11.57;79.27;99760.17;5016662;57;1136617;-80
2023/04/25 12:45:18;;;;;;;6.97;2.65;;;;;;;11.54;80.18;99767.91;5052929;56;1136804;-78
2023/04/25 12:50:24;;;;;;;2.17;2.00;;;;;;;11.52;79.84;99765.89;5033260;56;1136731;-77
2023/04/25 12:55:30;;;;;;;4.33;2.20;;;;;;;11.42;79.01;99777.48;5032909;57;1136790;-78
2023/04/25 13:00:35;;;;;;;4.50;2.10;;;;;;;11.14;81.51;99784.01;5007870;56;1136656;-79
2023/04/25 13:05:41;;;;;;;2.97;1.47;;;;;;;10.93;81.18;99784.62;5020474;56;1136865;-75
2023/04/25 13:10:48;;;;;;;4.53;1.77;;;;;;;10.81;82.76;99785.27;4957306;58;1136838;-77
2023/04/25 13:15:53;;;;;;;5.20;2.70;;;;;;;10.74;85.81;99795.19;4978902;58;1137006;-76
2023/04/25 13:21:03;;;;;;;6.63;2.20;;;;;;;10.59;87.71;99792.11;4959168;57;1136720;-78
2023/04/25 13:26:08;;;;;;;3.83;2.27;;;;;;;10.41;89.05;99801.19;4959585;57;1136898;-79
2023/04/25 13:31:14;;;;;;;3.10;1.93;;;;;;;10.31;92.32;99806.10;5060749;55;1136643;-77
2023/04/25 13:36:19;;;;;;;7.70;2.90;;;;;;;10.17;95.04;99804.16;4960724;57;1136794;-79
2023/04/25 13:41:25;;;;;;;3.73;2.00;;;;;;;10.15;94.24;99805.25;5025313;56;1136585;-78
2023/04/25 13:46:31;;;;;;;2.93;2.37;;;;;;;10.33;93.93;99808.13;5042700;56;1136720;-78
2023/04/25 13:51:37;;;;;;;6.67;1.70;;;;;;;10.55;92.42;99811.37;5022650;56;1136693;-78
2023/04/25 13:56:43;;;;;;;2.23;2.03;;;;;;;10.63;91.59;99823.93;5001761;56;1136868;-78
2023/04/25 14:01:48;;;;;;;4.47;2.72;;;;;;;10.50;91.67;99827.31;5124326;55;1136794;-79
2023/04/25 14:06:55;;;;;;;4.83;3.07;;;;;;;10.31;91.44;99828.57;5154623;55;1136694;-76
2023/04/25 14:12:01;;;;;;;1.10;1.03;;;;;;;10.23;91.92;99835.02;5033223;55;1136598;-80
2023/04/25 14:17:07;;;;;;;0.70;0.70;;;;;;;10.15;92.46;99834.31;5117745;56;1136598;-77
2023/04/25 14:22:13;;;;;;;0.87;0.80;;;;;;;10.16;90.21;99842.59;5053574;56;1140132;-79
2023/04/25 14:27:19;;;;;;;3.62;1.30;;;;;;;10.06;89.70;99841.73;5033728;57;1136702;-77
2023/04/25 14:32:24;;;;;;;1.67;1.47;;;;;;;9.88;92.71;99842.82;5033548;57;1136889;-77
2023/04/25 14:37:30;;;;;;;4.77;3.17;;;;;;;9.85;92.97;99846.55;5134982;56;1134550;-78
2023/04/25 14:42:35;;;;;;;2.27;1.60;;;;;;;9.81;92.49;99846.45;5153259;55;1134575;-78
2023/04/25 14:47:41;;;;;;;3.63;1.87;;;;;;;9.84;92.58;99842.23;5174958;55;1134606;-79
2023/04/25 14:52:47;;;;;;;2.67;2.10;;;;;;;9.92;91.94;99850.00;5033970;56;1134628;-79
2023/04/25 14:57:55;;;;;;;4.03;2.40;;;;;;;9.95;90.36;99857.64;5132518;56;1134716;-79
2023/04/25 15:03:00;;;;;;;5.17;2.37;;;;;;;9.91;90.67;99857.09;4951609;57;1134671;-77
2023/04/25 15:08:06;;;;;;;6.67;2.40;;;;;;;9.98;90.74;99864.83;5007370;56;1134607;-80
2023/04/25 15:13:12;;;;;;;7.45;4.15;;;;;;;10.02;91.44;99862.77;4976879;57;1142451;-78
2023/04/25 15:18:22;;;;;;;8.73;3.98;;;;;;;10.11;92.39;99858.84;5033358;56;1136655;-77
2023/04/25 15:23:27;;;;;;;7.35;1.95;;;;;;;10.25;92.66;99846.27;4951433;58;1136754;-76
2023/04/25 15:28:33;;;;;;;4.63;2.33;;;;;;;10.26;93.33;99859.84;4996774;57;1136872;-79
2023/04/25 15:33:39;;;;;;;7.03;2.87;;;;;;;10.23;95.15;99885.23;5183968;55;1136855;-77
2023/04/25 15:38:44;;;;;;;5.78;2.85;;;;;;;9.95;98.34;99895.95;5149052;55;1136793;-79
2023/04/25 15:43:50;;;;;;;4.80;3.10;;;;;;;9.57;97.49;99907.10;5117560;56;1134551;-78
2023/04/25 15:48:55;;;;;;;10.93;5.60;;;;;;;9.27;98.20;99894.64;5097867;55;1134688;-76
2023/04/25 15:54:01;;;;;;;10.80;4.03;;;;;;;9.23;99.61;99892.72;5136145;55;1136774;-76
2023/04/25 15:59:07;;;;;;;10.13;2.20;;;;;;;9.27;100.00;99890.20;5203938;55;1136924;-78
2023/04/25 16:04:14;;;;;;;7.42;2.45;;;;;;;9.27;100.00;99890.20;5175283;55;1142065;-79
2023/04/25 16:09:21;;;;;;;14.67;4.33;;;;;;;9.31;100.00;99897.39;5105523;55;1146220;-76
2023/04/25 16:14:26;;;;;;;11.12;3.75;;;;;;;9.40;100.00;99893.98;5204033;55;1138652;-75
2023/04/25 16:19:32;;;;;;;13.53;4.67;;;;;;;9.51;100.00;99897.88;5183377;55;1138806;-78
2023/04/25 16:24:37;;;;;;;18.60;6.87;;;;;;;9.62;100.00;99887.28;5183270;55;1138628;-78
2023/04/25 16:29:43;;;;;;;15.23;4.53;;;;;;;9.67;100.00;99893.48;5183200;55;1138903;-74
2023/04/25 16:34:49;;;;;;;12.80;3.87;;;;;;;9.73;96.35;99900.90;5203655;55;1138812;-76
2023/04/25 16:39:54;;;;;;;13.53;3.63;;;;;;;9.75;91.68;99906.41;5128099;55;1136846;-76
2023/04/25 16:45:00;;;;;;;18.77;4.23;;;;;;;9.68;85.56;99912.31;5097982;55;1136851;-79
2023/04/25 16:50:06;;;;;;;10.77;3.27;;;;;;;9.58;83.05;99913.58;5188311;55;1136639;-76
2023/04/25 16:55:12;;;;;;;17.52;4.90;;;;;;;9.51;82.69;99913.23;5176946;54;1136712;-77
2023/04/25 17:00:18;;;;;;;8.93;3.50;;;;;;;9.45;82.93;99913.77;5153844;55;1136741;-75
2023/04/25 17:05:26;;;;;;;24.50;4.67;;;;;;;9.40;82.12;99925.65;5146620;55;1134827;-75
2023/04/25 17:10:31;;;;;;;13.18;4.20;;;;;;;9.33;81.32;99939.81;5180620;55;1136615;-77
2023/04/25 17:15:38;;;;;;;21.97;5.30;;;;;;;9.26;80.35;99947.89;5152662;55;1136666;-75
2023/04/25 17:20:43;;;;;;;16.63;5.33;;;;;;;9.25;79.23;99950.17;5180264;55;1136606;-75
2023/04/25 17:25:49;;;;;;;8.47;3.47;;;;;;;9.28;78.37;99964.44;5194276;55;1136562;-78
2023/04/25 17:30:55;;;;;;;15.77;3.90;;;;;;;9.27;75.91;99957.97;5092899;56;1132488;-75
2023/04/25 17:36:02;;;;;;;6.35;2.20;;;;;;;9.24;73.78;99968.77;5126128;55;1134500;-76
2023/04/25 17:41:09;;;;;;;19.02;3.15;;;;;;;9.11;72.15;99970.23;5197220;55;1132476;-78
2023/04/25 17:46:15;;;;;;;13.50;2.75;;;;;;;9.00;71.97;99974.22;5129500;55;1145011;-76
2023/04/25 17:51:21;;;;;;;14.07;3.20;;;;;;;8.91;71.41;99976.25;5184373;55;1134790;-77
2023/04/25 17:56:26;;;;;;;13.43;3.45;;;;;;;8.84;72.61;99977.71;5200090;55;1134516;-78
2023/04/25 18:01:32;;;;;;;13.05;4.25;;;;;;;8.75;73.67;99986.69;5161967;55;1134775;-79
2023/04/25 18:06:37;;;;;;;16.63;3.70;;;;;;;8.66;74.33;99986.58;5096907;56;1134584;-79
2023/04/25 18:11:45;;;;;;;12.53;3.30;;;;;;;8.55;74.46;99990.06;5098137;56;1134622;-78
2023/04/25 18:16:55;;;;;;;20.13;3.93;;;;;;;8.51;75.17;99999.16;5117169;56;1134569;-78
2023/04/25 18:22:01;;;;;;;19.03;6.37;;;;;;;8.37;75.35;99998.91;5099363;55;1134523;-78
2023/04/25 18:27:06;;;;;;;9.93;3.30;;;;;;;8.23;75.72;100012.73;5144011;55;1134517;-78
2023/04/25 18:32:12;;;;;;;15.70;5.10;;;;;;;8.05;75.85;100025.02;5151461;55;1134712;-75
2023/04/25 18:37:18;;;;;;;13.07;5.20;;;;;;;7.90;76.73;100032.74;5097857;55;1142857;-78
2023/04/25 18:42:24;;;;;;;20.12;7.85;;;;;;;7.82;77.61;100040.83;5143635;55;1136689;-78
2023/04/25 18:47:29;;;;;;;21.52;6.45;;;;;;;7.73;77.96;100045.83;5200699;55;1136727;-77
2023/04/25 18:52:35;;;;;;;15.77;4.97;;;;;;;7.66;78.41;100051.64;5180109;55;1136666;-78
2023/04/25 18:57:40;;;;;;;15.57;4.23;;;;;;;7.61;78.86;100051.16;5180276;55;1136761;-79
2023/04/25 19:02:46;;;;;;;12.53;4.43;;;;;;;7.57;79.15;100050.53;5180052;55;1137028;-77
2023/04/25 19:07:52;;;;;;;14.37;4.13;;;;;;;7.49;79.07;100052.02;5188757;55;1136776;-78
2023/04/25 19:12:57;;;;;;;18.20;4.67;;;;;;;7.39;79.05;100061.91;5179214;55;1136528;-76
2023/04/25 19:18:03;;;;;;;11.37;4.17;;;;;;;7.36;79.45;100073.95;5181368;55;1136582;-75
2023/04/25 19:23:09;;;;;;;11.47;3.90;;;;;;;7.35;79.73;100073.59;5199891;55;1136821;-78
2023/04/25 19:28:15;;;;;;;11.20;5.00;;;;;;;7.35;79.90;100084.11;5159717;55;1136742;-78
2023/04/25 19:33:21;;;;;;;15.10;5.03;;;;;;;7.37;80.00;100081.37;5128423;55;1136688;-78
2023/04/25 19:38:26;;;;;;;16.23;4.83;;;;;;;7.32;79.57;100083.52;5196593;55;1137031;-78
2023/04/25 19:43:32;;;;;;;13.03;4.75;;;;;;;7.24;79.63;100092.41;5179320;55;1136625;-78
2023/04/25 19:48:38;;;;;;;11.90;4.73;;;;;;;7.13;79.74;100089.70;5178800;55;1136604;-78
2023/04/25 19:53:43;;;;;;;18.23;6.57;;;;;;;7.06;79.67;100095.38;5179219;55;1136646;-78
2023/04/25 19:58:49;;;;;;;16.40;5.57;;;;;;;7.08;80.22;100095.74;5199290;55;1136533;-78
2023/04/25 20:03:55;;;;;;;15.13;5.23;;;;;;;7.06;79.95;100095.84;5179122;55;1136615;-77
2023/04/25 20:09:00;;;;;;;13.40;5.10;;;;;;;6.97;79.34;100095.19;4954416;57;1136649;-77
2023/04/25 20:14:06;;;;;;;15.00;4.97;;;;;;;6.90;79.63;100095.22;4962047;58;1136574;-78
2023/04/25 20:19:12;;;;;;;14.87;4.90;;;;;;;6.90;79.78;100104.42;4943253;58;1136593;-78
2023/04/25 20:24:18;;;;;;;24.77;6.08;;;;;;;6.94;80.07;100093.60;4934981;58;1136764;-78
2023/04/25 20:29:25;;;;;;;23.77;7.35;;;;;;;6.94;79.56;100101.96;4960468;58;1136788;-78
2023/04/25 20:34:31;;;;;;;32.60;8.00;;;;;;;6.92;79.84;100104.69;4972210;57;1136634;-78
2023/04/25 20:39:37;;;;;;;22.33;7.03;;;;;;;6.89;79.76;100111.94;4981499;57;1136730;-78
2023/04/25 20:44:43;;;;;;;17.70;4.97;;;;;;;6.89;79.82;100116.73;4990735;57;1136841;-78
2023/04/25 20:49:48;;;;;;;19.13;5.67;;;;;;;6.85;79.79;100110.49;5052793;57;1136599;-78
2023/04/25 20:54:54;;;;;;;13.23;4.67;;;;;;;6.81;80.09;100112.95;5032990;56;1136602;-78
2023/04/25 21:00:00;;;;;;;19.07;5.80;;;;;;;6.78;80.40;100114.00;5033096;56;1136848;-78
2023/04/25 21:05:06;;;;;;;15.77;5.33;;;;;;;6.78;80.70;100113.16;5046857;56;1136847;-79
2023/04/25 21:10:13;;;;;;;12.10;4.37;;;;;;;6.74;81.52;100112.99;5011635;57;1136577;-77
2023/04/25 21:15:20;;;;;;;15.97;4.23;;;;;;;6.78;81.98;100121.89;5022447;57;1138710;-78
2023/04/25 21:20:25;;;;;;;19.37;5.57;;;;;;;6.76;82.15;100129.50;4980005;57;1136649;-78
2023/04/25 21:25:31;;;;;;;15.32;5.10;;;;;;;6.67;82.41;100124.41;4982002;57;1137024;-78
2023/04/25 21:30:37;;;;;;;14.90;4.47;;;;;;;6.56;82.80;100126.45;4989902;57;1136951;-78
2023/04/25 21:35:42;;;;;;;19.25;6.37;;;;;;;6.45;83.36;100131.56;4878461;57;1136800;-77
2023/04/25 21:40:48;;;;;;;15.90;4.90;;;;;;;6.37;83.67;100135.19;4964061;57;1136855;-78
2023/04/25 21:45:54;;;;;;;10.13;3.17;;;;;;;6.38;83.88;100138.19;4923937;57;1136877;-79
2023/04/25 21:51:00;;;;;;;12.33;3.10;;;;;;;6.40;84.07;100142.88;5024227;56;1136822;-78
2023/04/25 21:56:06;;;;;;;12.50;3.97;;;;;;;6.39;84.10;100135.94;4947897;58;1136691;-78
2023/04/25 22:01:11;;;;;;;11.27;3.33;;;;;;;6.41;84.18;100148.97;5014029;57;1136808;-77
2023/04/25 22:06:17;;;;;;;6.23;2.23;;;;;;;6.43;84.23;100149.21;4919393;57;1136842;-78
2023/04/25 22:11:28;;;;;;;5.60;2.27;;;;;;;6.44;83.89;100141.70;4939198;57;1134659;-78
2023/04/25 22:16:30;;;;;;;11.20;2.80;;;;;;;6.50;83.90;100141.30;4952698;56;1134477;-78
2023/04/25 22:21:35;;;;;;;10.82;2.72;;;;;;;6.52;83.62;100153.03;4918270;57;1136726;-78
2023/04/25 22:26:42;;;;;;;5.40;2.23;;;;;;;6.46;83.27;100155.58;4968501;56;1136798;-78
2023/04/25 22:31:47;;;;;;;5.37;2.17;;;;;;;6.42;83.22;100156.72;5050496;55;1134551;-78
2023/04/25 22:36:54;;;;;;;7.70;2.27;;;;;;;6.36;83.19;100157.14;5030862;55;1134435;-77
2023/04/25 22:41:59;;;;;;;7.27;1.93;;;;;;;6.29;83.16;100159.31;5006776;57;1134536;-78
2023/04/25 22:47:05;;;;;;;4.47;2.17;;;;;;;6.25;83.32;100156.55;5025958;57;1134532;-78
2023/04/25 22:52:11;;;;;;;7.37;2.45;;;;;;;6.23;83.27;100152.33;5095042;55;1134727;-78
2023/04/25 22:57:17;;;;;;;9.17;2.33;;;;;;;6.20;83.35;100153.37;5006917;57;1134681;-77
2023/04/25 23:02:24;;;;;;;7.20;2.07;;;;;;;6.16;83.56;100154.50;5114984;55;1134506;-77
2023/04/25 23:07:30;;;;;;;7.03;2.30;;;;;;;6.12;83.63;100156.10;4973457;57;1134504;-77
2023/04/25 23:12:36;;;;;;;6.00;1.57;;;;;;;6.06;83.60;100153.89;4993514;56;1134750;-78
2023/04/25 23:17:42;;;;;;;5.10;1.83;;;;;;;6.04;83.85;100151.36;4915766;58;1134529;-77
2023/04/25 23:22:48;;;;;;;8.10;2.03;;;;;;;6.00;84.27;100154.65;4952716;57;1134619;-77
2023/04/25 23:27:55;;;;;;;14.90;2.40;;;;;;;5.98;84.65;100166.19;4996545;57;1134664;-78
2023/04/25 23:33:00;;;;;;;7.77;2.00;;;;;;;5.93;85.11;100170.91;5001276;57;1136605;-77